Date,TemperatureHighF,TemperatureAvgF,TemperatureLowF,DewpointHighF,DewpointAvgF,DewpointLowF,HumidityHigh,HumidityAvg,HumidityLow,PressureMaxIn,PressureMinIn,WindSpeedMaxMPH,WindSpeedAvgMPH,GustSpeedMaxMPH,PrecipitationSumIn
2013-9-2,74,71,68,64,61,58,80,70,67,29.83,29.81,1,0,4,0.00
2013-9-3,73,63,58,59,54,52,82,74,59,29.98,29.88,0,0,0,0.00
2013-9-4,79,72,65,64,62,60,84,71,58,30.04,29.99,0,0,0,0.00
2013-9-5,69,62,54,60,50,46,81,65,53,30.23,30.05,1,0,8,0.00
2013-9-6,74,63,48,54,51,44,88,66,47,30.25,30.04,2,0,9,0.00
2013-9-7,78,67,58,68,60,51,89,79,67,30.04,29.87,2,0,6,0.12
2013-9-8,72,67,57,65,59,50,89,76,58,30.06,29.90,4,0,9,0.00
2013-9-9,72,63,53,68,59,49,90,86,78,30.05,29.88,2,0,8,0.12
2013-9-10,92,79,68,75,70,65,92,75,50,29.98,29.86,4,1,9,0.00
2013-9-11,88,76,68,74,68,64,89,76,61,30.00,29.87,8,0,19,1.67
2013-9-12,77,69,62,65,63,55,92,82,56,29.92,29.82,2,0,6,0.18
2013-9-13,60,55,47,49,46,41,80,72,63,30.10,29.93,2,0,6,0.00
2013-9-14,66,59,42,49,47,38,87,66,53,30.16,30.06,0,0,5,0.00
2013-9-15,63,54,49,54,49,45,88,82,73,30.08,30.05,0,0,0,0.04
2013-9-16,60,54,48,52,47,42,90,78,64,30.35,30.13,0,0,0,0.00
2013-9-17,66,54,41,53,46,37,89,74,57,30.37,30.20,100,36,114,0.00
2013-9-18,74,67,48,60,55,43,89,68,53,30.19,30.02,4,0,27,0.00
2013-9-19,79,71,59,69,64,55,89,79,71,30.02,29.90,0,0,0,0.00
2013-9-20,78,73,68,71,68,64,90,84,75,29.87,29.73,0,0,0,0.02
2013-9-21,67,62,55,64,55,46,91,78,65,29.84,29.67,0,0,0,0.02
2013-9-22,54,52,50,46,44,43,76,74,72,29.95,29.85,93,46,114,0.00